createdAt,value
2017-01-18T00:00:45.468Z,1041.65
2017-01-18T00:02:07.320Z,1041.58
2017-01-18T00:03:29.381Z,1041.57
2017-01-18T00:04:52.452Z,1041.6
2017-01-18T00:06:15.314Z,1041.61
2017-01-18T00:07:38.311Z,1041.67
2017-01-18T00:09:00.971Z,1041.66
2017-01-18T00:10:23.211Z,1041.62
2017-01-18T00:11:46.112Z,1041.62
2017-01-18T00:13:08.331Z,1041.65
2017-01-18T00:14:30.919Z,1041.72
2017-01-18T00:15:53.400Z,1041.71
2017-01-18T00:17:16.000Z,1041.73
2017-01-18T00:18:38.559Z,1041.71
2017-01-18T00:20:01.032Z,1041.74
2017-01-18T00:21:23.117Z,1041.73
2017-01-18T00:22:46.001Z,1041.74
2017-01-18T00:24:08.929Z,1041.76
2017-01-18T00:25:31.826Z,1041.72
2017-01-18T00:26:54.853Z,1041.77
2017-01-18T00:28:17.321Z,1041.75
2017-01-18T00:29:40.313Z,1041.76
2017-01-18T00:31:02.819Z,1041.77
2017-01-18T00:32:25.287Z,1041.78
2017-01-18T00:33:47.759Z,1041.83
2017-01-18T00:35:10.244Z,1041.78
2017-01-18T00:36:32.463Z,1041.79
2017-01-18T00:37:55.420Z,1041.78
2017-01-18T00:39:18.093Z,1041.82
2017-01-18T00:40:41.188Z,1041.84
2017-01-18T00:42:04.020Z,1041.86
2017-01-18T00:43:26.508Z,1041.8
2017-01-18T00:44:49.422Z,1041.82
2017-01-18T00:46:12.401Z,1041.77
2017-01-18T00:47:35.361Z,1041.77
2017-01-18T00:48:58.443Z,1041.78
2017-01-18T00:50:20.532Z,1041.76
2017-01-18T00:51:43.390Z,1041.73
2017-01-18T00:53:05.838Z,1041.76
2017-01-18T00:54:28.694Z,1041.74
2017-01-18T00:55:51.582Z,1041.77
2017-01-18T00:57:14.527Z,1041.74
2017-01-18T00:58:36.975Z,1041.74
2017-01-18T00:59:59.928Z,1041.77
2017-01-18T01:01:22.790Z,1041.76
2017-01-18T01:02:45.763Z,1041.75
2017-01-18T01:04:07.832Z,1041.72
2017-01-18T01:05:30.722Z,1041.72
2017-01-18T01:06:53.344Z,1041.75
2017-01-18T01:08:15.521Z,1041.73
2017-01-18T01:09:37.980Z,1041.72
2017-01-18T01:11:00.043Z,1041.72
2017-01-18T01:12:23.044Z,1041.72
2017-01-18T01:13:45.524Z,1041.71
2017-01-18T01:15:08.376Z,1041.7
2017-01-18T01:16:30.847Z,1041.67
2017-01-18T01:17:53.729Z,1041.63
2017-01-18T01:19:16.622Z,1041.72
2017-01-18T01:20:39.600Z,1041.79
2017-01-18T01:22:02.501Z,1041.8
2017-01-18T01:23:24.983Z,1041.83
2017-01-18T01:24:47.053Z,1041.88
2017-01-18T01:26:09.920Z,1041.9
2017-01-18T01:27:32.131Z,1041.9
2017-01-18T01:28:55.003Z,1041.9
2017-01-18T01:30:18.003Z,1041.92
2017-01-18T01:31:40.880Z,1041.94
2017-01-18T01:33:03.352Z,1041.92
2017-01-18T01:34:26.309Z,1041.89
2017-01-18T01:35:47.987Z,1041.88
2017-01-18T01:37:10.852Z,1041.86
2017-01-18T01:38:33.731Z,1041.83
2017-01-18T01:39:56.655Z,1041.79
2017-01-18T01:41:19.179Z,1041.78
2017-01-18T01:42:41.652Z,1041.77
2017-01-18T01:44:04.573Z,1041.83
2017-01-18T01:45:27.434Z,1041.83
2017-01-18T01:46:49.910Z,1041.86
2017-01-18T01:48:12.821Z,1041.87
2017-01-18T01:49:35.279Z,1041.87
2017-01-18T01:50:58.138Z,1041.89
2017-01-18T01:52:21.045Z,1041.92
2017-01-18T01:53:43.921Z,1041.92
2017-01-18T01:55:06.403Z,1041.93
2017-01-18T01:56:28.860Z,1041.85
2017-01-18T01:57:51.402Z,1041.88
2017-01-18T01:59:14.258Z,1041.92
2017-01-18T02:00:36.353Z,1041.93
2017-01-18T02:01:58.565Z,1041.92
2017-01-18T02:03:21.435Z,1041.91
2017-01-18T02:04:44.401Z,1041.89
2017-01-18T02:06:07.316Z,1041.88
2017-01-18T02:07:30.160Z,1041.83
2017-01-18T02:08:52.661Z,1041.87
2017-01-18T02:10:14.744Z,1041.85
2017-01-18T02:11:36.944Z,1041.92
2017-01-18T02:12:59.837Z,1041.93
2017-01-18T02:14:22.779Z,1041.91
2017-01-18T02:15:45.678Z,1041.89
2017-01-18T02:17:08.648Z,1041.87
2017-01-18T02:18:31.650Z,1041.87
2017-01-18T02:19:54.514Z,1041.84
2017-01-18T02:21:17.400Z,1041.82
2017-01-18T02:22:40.256Z,1041.88
2017-01-18T02:24:03.169Z,1041.82
2017-01-18T02:25:26.040Z,1041.83
2017-01-18T02:26:48.521Z,1041.81
2017-01-18T02:28:10.967Z,1041.84
2017-01-18T02:29:33.057Z,1041.86
2017-01-18T02:30:55.920Z,1041.88
2017-01-18T02:32:18.817Z,1041.87
2017-01-18T02:33:41.854Z,1041.83
2017-01-18T02:35:04.710Z,1041.88
2017-01-18T02:36:26.478Z,1041.87
2017-01-18T02:37:49.319Z,1041.87
2017-01-18T02:39:11.440Z,1041.81
2017-01-18T02:40:34.410Z,1041.83
2017-01-18T02:41:56.909Z,1041.77
2017-01-18T02:43:19.798Z,1041.73
2017-01-18T02:44:42.405Z,1041.7
2017-01-18T02:46:04.971Z,1041.62
2017-01-18T02:47:27.854Z,1041.59
2017-01-18T02:48:50.698Z,1041.51
2017-01-18T02:50:13.206Z,1041.5
2017-01-18T02:51:35.302Z,1041.5
2017-01-18T02:52:57.783Z,1041.51
2017-01-18T02:54:20.353Z,1041.57
2017-01-18T02:55:42.831Z,1041.56
2017-01-18T02:57:04.910Z,1041.58
2017-01-18T02:58:28.017Z,1041.57
2017-01-18T02:59:50.959Z,1041.56
2017-01-18T03:01:13.422Z,1041.55
2017-01-18T03:02:35.919Z,1041.52
2017-01-18T03:03:58.375Z,1041.52
2017-01-18T03:05:21.321Z,1041.46
2017-01-18T03:06:43.397Z,1041.47
2017-01-18T03:08:06.318Z,1041.42
2017-01-18T03:09:28.790Z,1041.4
2017-01-18T03:10:51.647Z,1041.36
2017-01-18T03:12:14.553Z,1041.36
2017-01-18T03:13:37.199Z,1041.38
2017-01-18T03:15:00.109Z,1041.37
2017-01-18T03:16:22.190Z,1041.36
2017-01-18T03:17:44.747Z,1041.34
2017-01-18T03:19:07.327Z,1041.32
2017-01-18T03:20:30.247Z,1041.34
2017-01-18T03:21:53.228Z,1041.32
2017-01-18T03:23:16.106Z,1041.34
2017-01-18T03:24:39.016Z,1041.32
2017-01-18T03:26:01.500Z,1041.29
2017-01-18T03:27:23.960Z,1041.31
2017-01-18T03:28:46.826Z,1041.27
2017-01-18T03:30:09.286Z,1041.3
2017-01-18T03:31:31.400Z,1041.28
2017-01-18T03:32:53.861Z,1041.25
2017-01-18T03:34:16.336Z,1041.32
2017-01-18T03:35:39.284Z,1041.28
2017-01-18T03:37:01.746Z,1041.3
2017-01-18T03:38:24.619Z,1041.31
2017-01-18T03:39:47.525Z,1041.39
2017-01-18T03:41:10.379Z,1041.37
2017-01-18T03:42:32.863Z,1041.43
2017-01-18T03:43:55.925Z,1041.41
2017-01-18T03:45:18.921Z,1041.41
2017-01-18T03:46:41.046Z,1041.43
2017-01-18T03:48:03.907Z,1041.42
2017-01-18T03:49:26.887Z,1041.44
2017-01-18T03:50:48.956Z,1041.43
2017-01-18T03:52:11.417Z,1041.39
2017-01-18T03:53:34.275Z,1041.39
2017-01-18T03:54:56.351Z,1041.4
2017-01-18T03:56:18.819Z,1041.41
2017-01-18T03:57:41.779Z,1041.45
2017-01-18T03:59:04.632Z,1041.44
2017-01-18T04:00:27.507Z,1041.42
2017-01-18T04:01:49.580Z,1041.3
2017-01-18T04:03:12.462Z,1041.31
2017-01-18T04:04:35.367Z,1041.35
2017-01-18T04:05:57.443Z,1041.35
2017-01-18T04:07:19.504Z,1041.39
2017-01-18T04:08:41.996Z,1041.38
2017-01-18T04:10:04.990Z,1041.3
2017-01-18T04:11:27.977Z,1041.33
2017-01-18T04:12:50.039Z,1041.36
2017-01-18T04:14:12.096Z,1041.37
2017-01-18T04:15:34.608Z,1041.38
2017-01-18T04:16:57.506Z,1041.36
2017-01-18T04:18:19.559Z,1041.41
2017-01-18T04:19:42.296Z,1041.42
2017-01-18T04:21:04.808Z,1041.44
2017-01-18T04:22:26.900Z,1041.43
2017-01-18T04:23:49.735Z,1041.37
2017-01-18T04:25:12.701Z,1041.37
2017-01-18T04:26:35.554Z,1041.34
2017-01-18T04:27:58.474Z,1041.3
2017-01-18T04:29:20.706Z,1041.2
2017-01-18T04:30:43.699Z,1041.21
2017-01-18T04:32:05.477Z,1041.17
2017-01-18T04:33:28.390Z,1041.19
2017-01-18T04:34:51.431Z,1041.21
2017-01-18T04:36:13.495Z,1041.2
2017-01-18T04:37:36.500Z,1041.14
2017-01-18T04:38:59.372Z,1041.03
2017-01-18T04:40:22.239Z,1041.02
2017-01-18T04:41:45.099Z,1041.02
2017-01-18T04:43:08.093Z,1041.06
2017-01-18T04:44:30.977Z,1041.07
2017-01-18T04:45:53.881Z,1041.13
2017-01-18T04:47:16.764Z,1041.11
2017-01-18T04:48:39.764Z,1041.12
2017-01-18T04:50:02.626Z,1041.12
2017-01-18T04:51:24.795Z,1041.1
2017-01-18T04:52:46.847Z,1041.13
2017-01-18T04:54:09.301Z,1041.19
2017-01-18T04:55:31.791Z,1041.21
2017-01-18T04:56:53.854Z,1041.26
2017-01-18T04:58:16.434Z,1041.24
2017-01-18T04:59:39.313Z,1041.25
2017-01-18T05:01:02.351Z,1041.3
2017-01-18T05:02:24.836Z,1041.25
2017-01-18T05:03:47.471Z,1041.22
2017-01-18T05:05:09.530Z,1041.26
2017-01-18T05:06:32.037Z,1041.27
2017-01-18T05:07:55.054Z,1041.27
2017-01-18T05:09:17.532Z,1041.21
2017-01-18T05:10:40.411Z,1041.24
2017-01-18T05:12:02.464Z,1041.21
2017-01-18T05:13:24.944Z,1041.24
2017-01-18T05:14:47.851Z,1041.26
2017-01-18T05:16:10.304Z,1041.19
2017-01-18T05:17:32.807Z,1041.18
2017-01-18T05:18:55.270Z,1041.23
2017-01-18T05:20:16.942Z,1041.3
2017-01-18T05:21:39.411Z,1041.28
2017-01-18T05:23:01.470Z,1041.31
2017-01-18T05:24:23.934Z,1041.3
2017-01-18T05:25:46.545Z,1041.31
2017-01-18T05:27:09.381Z,1041.3
2017-01-18T05:28:32.411Z,1041.32
2017-01-18T05:29:54.729Z,1041.32
2017-01-18T05:31:17.701Z,1041.4
2017-01-18T05:32:40.549Z,1041.37
2017-01-18T05:34:02.206Z,1041.35
2017-01-18T05:35:24.656Z,1041.26
2017-01-18T05:36:47.220Z,1041.26
2017-01-18T05:38:10.091Z,1041.24
2017-01-18T05:39:33.115Z,1041.28
2017-01-18T05:40:56.008Z,1041.3
2017-01-18T05:42:18.831Z,1041.32
2017-01-18T05:43:40.908Z,1041.3
2017-01-18T05:45:03.371Z,1041.32
2017-01-18T05:46:25.941Z,1041.31
2017-01-18T05:47:48.034Z,1041.3
2017-01-18T05:49:10.515Z,1041.33
2017-01-18T05:50:33.423Z,1041.33
2017-01-18T05:51:56.281Z,1041.36
2017-01-18T05:53:19.185Z,1041.35
2017-01-18T05:54:41.654Z,1041.32
2017-01-18T05:56:04.139Z,1041.4
2017-01-18T05:57:27.006Z,1041.44
2017-01-18T05:58:49.956Z,1041.4
2017-01-18T06:00:12.591Z,1041.43
2017-01-18T06:01:35.451Z,1041.34
2017-01-18T06:02:57.950Z,1041.4
2017-01-18T06:04:20.414Z,1041.35
2017-01-18T06:05:42.889Z,1041.31
2017-01-18T06:07:04.975Z,1041.31
2017-01-18T06:08:27.853Z,1041.36
2017-01-18T06:09:50.755Z,1041.39
2017-01-18T06:11:13.651Z,1041.45
2017-01-18T06:12:36.115Z,1041.45
2017-01-18T06:13:58.742Z,1041.45
2017-01-18T06:15:21.644Z,1041.41
2017-01-18T06:16:44.099Z,1041.4
2017-01-18T06:18:06.550Z,1041.36
2017-01-18T06:19:29.035Z,1041.37
2017-01-18T06:20:51.472Z,1041.37
2017-01-18T06:22:14.356Z,1041.41
2017-01-18T06:23:36.827Z,1041.35
2017-01-18T06:24:59.720Z,1041.39
2017-01-18T06:26:22.594Z,1041.33
2017-01-18T06:27:45.596Z,1041.38
2017-01-18T06:29:08.632Z,1041.4
2017-01-18T06:30:31.097Z,1041.38
2017-01-18T06:31:53.209Z,1041.44
2017-01-18T06:33:15.691Z,1041.45
2017-01-18T06:34:38.220Z,1041.48
2017-01-18T06:36:00.766Z,1041.48
2017-01-18T06:37:22.883Z,1041.44
2017-01-18T06:38:45.336Z,1041.45
2017-01-18T06:40:08.326Z,1041.41
2017-01-18T06:41:31.750Z,1041.43
2017-01-18T06:42:54.218Z,1041.43
2017-01-18T06:44:16.683Z,1041.44
2017-01-18T06:45:39.687Z,1041.45
2017-01-18T06:47:02.991Z,1041.45
2017-01-18T06:48:25.442Z,1041.49
2017-01-18T06:49:48.299Z,1041.46
2017-01-18T06:51:11.272Z,1041.5
2017-01-18T06:52:34.124Z,1041.47
2017-01-18T06:53:56.642Z,1041.44
2017-01-18T06:55:19.201Z,1041.45
2017-01-18T06:56:41.285Z,1041.45
2017-01-18T06:58:03.777Z,1041.52
2017-01-18T06:59:26.289Z,1041.5
2017-01-18T07:00:49.411Z,1041.54
2017-01-18T07:02:12.339Z,1041.57
2017-01-18T07:03:35.203Z,1041.59
2017-01-18T07:04:57.700Z,1041.59
2017-01-18T07:06:20.188Z,1041.56
2017-01-18T07:07:43.107Z,1041.57
2017-01-18T07:09:05.615Z,1041.54
2017-01-18T07:10:28.566Z,1041.55
2017-01-18T07:11:51.065Z,1041.55
2017-01-18T07:13:13.691Z,1041.58
2017-01-18T07:14:35.938Z,1041.55
2017-01-18T07:15:57.608Z,1041.57
2017-01-18T07:17:20.130Z,1041.53
2017-01-18T07:18:42.204Z,1041.48
2017-01-18T07:20:04.277Z,1041.54
2017-01-18T07:21:26.838Z,1041.55
2017-01-18T07:22:49.768Z,1041.7
2017-01-18T07:24:12.268Z,1041.64
2017-01-18T07:25:35.137Z,1041.69
2017-01-18T07:26:58.007Z,1041.73
2017-01-18T07:28:20.071Z,1041.74
2017-01-18T07:29:42.946Z,1041.75
2017-01-18T07:31:05.513Z,1041.72
2017-01-18T07:32:27.635Z,1041.78
2017-01-18T07:33:50.205Z,1041.77
2017-01-18T07:35:12.261Z,1041.78
2017-01-18T07:36:34.821Z,1041.77
2017-01-18T07:37:57.287Z,1041.84
2017-01-18T07:39:20.239Z,1041.86
2017-01-18T07:40:42.865Z,1041.88
2017-01-18T07:42:05.374Z,1041.87
2017-01-18T07:43:27.846Z,1041.87
2017-01-18T07:44:50.722Z,1041.88
2017-01-18T07:46:13.230Z,1041.88
2017-01-18T07:47:35.108Z,1041.88
2017-01-18T07:48:57.583Z,1041.87
2017-01-18T07:50:20.446Z,1041.92
2017-01-18T07:51:42.916Z,1041.92
2017-01-18T07:53:05.388Z,1041.95
2017-01-18T07:54:27.844Z,1041.89
2017-01-18T07:55:50.785Z,1041.89
2017-01-18T07:57:13.254Z,1041.96
2017-01-18T07:58:36.270Z,1042.01
2017-01-18T07:59:58.341Z,1042.07
2017-01-18T08:01:21.204Z,1042.02
2017-01-18T08:02:43.389Z,1042.07
2017-01-18T08:04:05.869Z,1042.04
2017-01-18T08:05:28.949Z,1042.02
2017-01-18T08:06:51.814Z,1042.09
2017-01-18T08:08:14.769Z,1042.03
2017-01-18T08:09:37.248Z,1042.04
2017-01-18T08:10:59.818Z,1042.02
2017-01-18T08:12:22.344Z,1042
2017-01-18T08:13:45.429Z,1041.99
2017-01-18T08:15:07.867Z,1042.01
2017-01-18T08:16:30.704Z,1041.99
2017-01-18T08:17:52.365Z,1041.98
2017-01-18T08:19:15.336Z,1042.05
2017-01-18T08:20:38.237Z,1042.04
2017-01-18T08:22:01.246Z,1042.08
2017-01-18T08:23:23.707Z,1042.07
2017-01-18T08:24:46.659Z,1042.11
2017-01-18T08:26:09.519Z,1042.15
2017-01-18T08:27:32.439Z,1042.14
2017-01-18T08:28:55.228Z,1042.2
2017-01-18T08:30:18.115Z,1042.18
2017-01-18T08:31:40.165Z,1042.23
2017-01-18T08:33:03.185Z,1042.23
2017-01-18T08:34:26.125Z,1042.29
2017-01-18T08:35:49.126Z,1042.31
2017-01-18T08:37:11.593Z,1042.31
2017-01-18T08:38:34.434Z,1042.35
2017-01-18T08:39:56.887Z,1042.36
2017-01-18T08:41:19.464Z,1042.35
2017-01-18T08:42:42.406Z,1042.38
2017-01-18T08:44:05.398Z,1042.36
2017-01-18T08:45:27.538Z,1042.33
2017-01-18T08:46:49.983Z,1042.31
2017-01-18T08:48:12.676Z,1042.3
2017-01-18T08:49:35.558Z,1042.32
2017-01-18T08:50:58.118Z,1042.33
2017-01-18T08:52:21.150Z,1042.4
2017-01-18T08:53:44.627Z,1042.4
2017-01-18T08:55:07.568Z,1042.4
2017-01-18T08:56:29.679Z,1042.45
2017-01-18T08:57:52.589Z,1042.42
2017-01-18T08:59:15.168Z,1042.51
2017-01-18T09:00:38.022Z,1042.46
2017-01-18T09:02:01.076Z,1042.49
2017-01-18T09:03:23.961Z,1042.52
2017-01-18T09:04:46.448Z,1042.55
2017-01-18T09:06:09.312Z,1042.62
2017-01-18T09:07:32.531Z,1042.57
2017-01-18T09:08:55.054Z,1042.59
2017-01-18T09:10:17.927Z,1042.57
2017-01-18T09:11:40.809Z,1042.64
2017-01-18T09:13:03.282Z,1042.61
2017-01-18T09:14:26.157Z,1042.62
2017-01-18T09:15:48.758Z,1042.59
2017-01-18T09:17:11.605Z,1042.63
2017-01-18T09:18:34.387Z,1042.63
2017-01-18T09:19:57.283Z,1042.69
2017-01-18T09:21:19.769Z,1042.62
2017-01-18T09:22:42.260Z,1042.65
2017-01-18T09:24:05.107Z,1042.67
2017-01-18T09:25:28.006Z,1042.65
2017-01-18T09:26:50.949Z,1042.64
2017-01-18T09:28:14.057Z,1042.64
2017-01-18T09:29:36.988Z,1042.62
2017-01-18T09:30:59.461Z,1042.69
2017-01-18T09:32:21.926Z,1042.62
2017-01-18T09:33:44.129Z,1042.73
2017-01-18T09:35:06.625Z,1042.71
2017-01-18T09:36:29.065Z,1042.7
2017-01-18T09:37:51.215Z,1042.7
2017-01-18T09:39:14.157Z,1042.71
2017-01-18T09:40:37.074Z,1042.76
2017-01-18T09:41:59.755Z,1042.76
2017-01-18T09:43:22.218Z,1042.75
2017-01-18T09:44:45.166Z,1042.79
2017-01-18T09:46:08.024Z,1042.76
2017-01-18T09:47:30.615Z,1042.72
2017-01-18T09:48:53.476Z,1042.73
2017-01-18T09:50:15.948Z,1042.73
2017-01-18T09:51:38.524Z,1042.75
2017-01-18T09:53:00.581Z,1042.83
2017-01-18T09:54:23.044Z,1042.81
2017-01-18T09:55:45.996Z,1042.78
2017-01-18T09:57:08.869Z,1042.84
2017-01-18T09:58:31.434Z,1042.84
2017-01-18T09:59:54.343Z,1042.84
2017-01-18T10:01:17.277Z,1042.81
2017-01-18T10:02:39.860Z,1042.85
2017-01-18T10:04:01.943Z,1042.84
2017-01-18T10:05:24.014Z,1042.77
2017-01-18T10:06:47.000Z,1042.78
2017-01-18T10:08:09.488Z,1042.75
2017-01-18T10:09:32.375Z,1042.76
2017-01-18T10:10:55.337Z,1042.72
2017-01-18T10:12:18.221Z,1042.71
2017-01-18T10:13:41.107Z,1042.73
2017-01-18T10:15:03.957Z,1042.74
2017-01-18T10:16:26.853Z,1042.76
2017-01-18T10:17:49.316Z,1042.65
2017-01-18T10:19:12.325Z,1042.61
2017-01-18T10:20:34.864Z,1042.59
2017-01-18T10:21:57.335Z,1042.56
2017-01-18T10:23:19.416Z,1042.51
2017-01-18T10:24:42.005Z,1042.5
2017-01-18T10:26:04.946Z,1042.48
2017-01-18T10:27:27.428Z,1042.49
2017-01-18T10:28:50.284Z,1042.47
2017-01-18T10:30:13.144Z,1042.45
2017-01-18T10:31:36.051Z,1042.46
2017-01-18T10:32:58.618Z,1042.53
2017-01-18T10:34:21.474Z,1042.52
2017-01-18T10:35:43.593Z,1042.5
2017-01-18T10:37:06.086Z,1042.51
2017-01-18T10:38:28.174Z,1042.5
2017-01-18T10:39:51.035Z,1042.51
2017-01-18T10:41:13.659Z,1042.54
2017-01-18T10:42:36.161Z,1042.61
2017-01-18T10:43:59.057Z,1042.59
2017-01-18T10:45:21.516Z,1042.59
2017-01-18T10:46:43.998Z,1042.5
2017-01-18T10:48:06.965Z,1042.46
2017-01-18T10:49:29.855Z,1042.5
2017-01-18T10:50:52.855Z,1042.44
2017-01-18T10:52:15.478Z,1042.46
2017-01-18T10:53:37.991Z,1042.43
2017-01-18T10:55:00.927Z,1042.42
2017-01-18T10:56:23.929Z,1042.43
2017-01-18T10:57:46.438Z,1042.42
2017-01-18T10:59:09.338Z,1042.39
2017-01-18T11:00:32.193Z,1042.4
2017-01-18T11:01:54.712Z,1042.39
2017-01-18T11:03:17.708Z,1042.38
2017-01-18T11:04:40.189Z,1042.39
2017-01-18T11:06:02.728Z,1042.4
2017-01-18T11:07:25.226Z,1042.36
2017-01-18T11:08:48.090Z,1042.33
2017-01-18T11:10:10.544Z,1042.37
2017-01-18T11:11:32.291Z,1042.37
2017-01-18T11:12:54.828Z,1042.34
2017-01-18T11:14:17.321Z,1042.32
2017-01-18T11:15:40.332Z,1042.32
2017-01-18T11:17:02.558Z,1042.31
2017-01-18T11:18:24.688Z,1042.31
2017-01-18T11:19:47.568Z,1042.27
2017-01-18T11:21:10.594Z,1042.28
2017-01-18T11:22:32.425Z,1042.27
2017-01-18T11:23:54.879Z,1042.25
2017-01-18T11:25:17.776Z,1042.23
2017-01-18T11:26:40.649Z,1042.24
2017-01-18T11:28:03.218Z,1042.24
2017-01-18T11:29:26.139Z,1042.28
2017-01-18T11:30:48.202Z,1042.24
2017-01-18T11:32:11.069Z,1042.23
2017-01-18T11:33:33.946Z,1042.25
2017-01-18T11:34:56.418Z,1042.29
2017-01-18T11:36:19.295Z,1042.22
2017-01-18T11:37:42.198Z,1042.28
2017-01-18T11:39:05.088Z,1042.29
2017-01-18T11:40:27.300Z,1042.25
2017-01-18T11:41:50.151Z,1042.33
2017-01-18T11:43:12.797Z,1042.31
2017-01-18T11:44:35.327Z,1042.32
2017-01-18T11:45:57.503Z,1042.27
2017-01-18T11:47:20.510Z,1042.27
2017-01-18T11:48:43.425Z,1042.28
2017-01-18T11:50:05.957Z,1042.27
2017-01-18T11:51:28.443Z,1042.24
2017-01-18T11:52:50.940Z,1042.19
2017-01-18T11:54:13.868Z,1042.22
2017-01-18T11:55:36.446Z,1042.16
2017-01-18T11:56:59.006Z,1042.16
2017-01-18T11:58:21.588Z,1042.2
2017-01-18T11:59:43.678Z,1042.18
2017-01-18T12:01:06.201Z,1042.16
2017-01-18T12:02:28.420Z,1042.18
2017-01-18T12:03:51.317Z,1042.21
2017-01-18T12:05:14.318Z,1042.17
2017-01-18T12:06:37.193Z,1042.14
2017-01-18T12:07:59.714Z,1042.16
2017-01-18T12:09:22.598Z,1042.19
2017-01-18T12:10:44.779Z,1042.19
2017-01-18T12:12:07.666Z,1042.15
2017-01-18T12:13:30.130Z,1042.14
2017-01-18T12:14:52.989Z,1042.12
2017-01-18T12:16:15.898Z,1042.16
2017-01-18T12:17:38.515Z,1042.17
2017-01-18T12:19:01.006Z,1042.16
2017-01-18T12:20:23.448Z,1042.13
2017-01-18T12:21:46.355Z,1042.1
2017-01-18T12:23:08.989Z,1042.09
2017-01-18T12:24:31.863Z,1042.09
2017-01-18T12:25:54.336Z,1042.06
2017-01-18T12:27:17.268Z,1042.05
2017-01-18T12:28:39.735Z,1042.03
2017-01-18T12:30:02.635Z,1042.01
2017-01-18T12:31:25.111Z,1042.01
2017-01-18T12:32:48.006Z,1042
2017-01-18T12:34:10.163Z,1042.01
2017-01-18T12:35:32.811Z,1041.99
2017-01-18T12:36:55.694Z,1041.99
2017-01-18T12:38:18.609Z,1041.95
2017-01-18T12:39:41.098Z,1041.89
2017-01-18T12:41:03.992Z,1041.89
2017-01-18T12:42:26.878Z,1041.88
2017-01-18T12:43:49.819Z,1041.87
2017-01-18T12:45:12.689Z,1041.86
2017-01-18T12:46:35.587Z,1041.87
2017-01-18T12:47:58.458Z,1041.94
2017-01-18T12:49:20.625Z,1041.92
2017-01-18T12:50:43.650Z,1041.86
2017-01-18T12:52:05.726Z,1041.89
2017-01-18T12:53:28.209Z,1041.87
2017-01-18T12:54:51.139Z,1041.88
2017-01-18T12:56:13.211Z,1041.88
2017-01-18T12:57:36.094Z,1041.87
2017-01-18T12:58:58.315Z,1041.94
2017-01-18T13:00:21.236Z,1041.89
2017-01-18T13:01:43.327Z,1041.86
2017-01-18T13:03:06.216Z,1041.86
2017-01-18T13:04:28.793Z,1041.84
2017-01-18T13:05:50.881Z,1041.82
2017-01-18T13:07:13.779Z,1041.8
2017-01-18T13:08:35.908Z,1041.76
2017-01-18T13:09:57.563Z,1041.71
2017-01-18T13:11:20.057Z,1041.74
2017-01-18T13:12:42.686Z,1041.7
2017-01-18T13:14:04.811Z,1041.68
2017-01-18T13:15:27.723Z,1041.69
2017-01-18T13:16:50.236Z,1041.72
2017-01-18T13:18:13.111Z,1041.66
2017-01-18T13:19:35.317Z,1041.66
2017-01-18T13:20:57.878Z,1041.69
2017-01-18T13:22:20.075Z,1041.7
2017-01-18T13:23:42.551Z,1041.71
2017-01-18T13:25:05.619Z,1041.71
2017-01-18T13:26:28.079Z,1041.72
2017-01-18T13:27:50.569Z,1041.71
2017-01-18T13:29:13.421Z,1041.68
2017-01-18T13:30:35.544Z,1041.65
2017-01-18T13:31:57.748Z,1041.65
2017-01-18T13:33:20.762Z,1041.62
2017-01-18T13:34:43.295Z,1041.62
2017-01-18T13:36:05.794Z,1041.61
2017-01-18T13:37:27.879Z,1041.64
2017-01-18T13:38:50.423Z,1041.63
2017-01-18T13:40:13.283Z,1041.59
2017-01-18T13:41:35.777Z,1041.61
2017-01-18T13:42:58.331Z,1041.56
2017-01-18T13:44:20.407Z,1041.57
2017-01-18T13:45:43.274Z,1041.63
2017-01-18T13:47:06.277Z,1041.58
2017-01-18T13:48:28.386Z,1041.62
2017-01-18T13:49:51.275Z,1041.64
2017-01-18T13:51:14.370Z,1041.64
2017-01-18T13:52:37.287Z,1041.59
2017-01-18T13:54:00.145Z,1041.55
2017-01-18T13:55:23.118Z,1041.57
2017-01-18T13:56:46.014Z,1041.52
2017-01-18T13:58:08.164Z,1041.5
2017-01-18T13:59:30.648Z,1041.5
2017-01-18T14:00:53.139Z,1041.57
2017-01-18T14:02:15.667Z,1041.57
2017-01-18T14:03:38.577Z,1041.62
2017-01-18T14:05:01.045Z,1041.58
2017-01-18T14:06:23.979Z,1041.61
2017-01-18T14:07:46.859Z,1041.59
2017-01-18T14:09:08.980Z,1041.58
2017-01-18T14:10:31.060Z,1041.57
2017-01-18T14:11:53.928Z,1041.57
2017-01-18T14:13:16.806Z,1041.6
2017-01-18T14:14:39.736Z,1041.64
2017-01-18T14:16:02.197Z,1041.65
2017-01-18T14:17:25.177Z,1041.63
2017-01-18T14:18:47.707Z,1041.66
2017-01-18T14:20:10.202Z,1041.71
2017-01-18T14:21:32.280Z,1041.72
2017-01-18T14:22:54.754Z,1041.69
2017-01-18T14:24:17.692Z,1041.72
2017-01-18T14:25:40.586Z,1041.73
2017-01-18T14:27:03.485Z,1041.68
2017-01-18T14:28:26.416Z,1041.63
2017-01-18T14:29:48.969Z,1041.68
2017-01-18T14:31:11.575Z,1041.68
2017-01-18T14:32:34.515Z,1041.66
2017-01-18T14:33:57.441Z,1041.64
2017-01-18T14:35:18.986Z,1041.62
2017-01-18T14:36:41.448Z,1041.59
2017-01-18T14:38:04.353Z,1041.62
2017-01-18T14:39:27.330Z,1041.59
2017-01-18T14:40:50.015Z,1041.61
2017-01-18T14:42:12.095Z,1041.61
2017-01-18T14:43:35.217Z,1041.64
2017-01-18T14:44:57.694Z,1041.61
2017-01-18T14:46:20.721Z,1041.67
2017-01-18T14:47:42.918Z,1041.6
2017-01-18T14:49:05.034Z,1041.62
2017-01-18T14:50:27.652Z,1041.62
2017-01-18T14:51:50.145Z,1041.57
2017-01-18T14:53:12.262Z,1041.57
2017-01-18T14:54:35.186Z,1041.57
2017-01-18T14:55:58.088Z,1041.56
2017-01-18T14:57:21.072Z,1041.57
2017-01-18T14:58:42.780Z,1041.56
2017-01-18T15:00:05.340Z,1041.59
2017-01-18T15:01:27.399Z,1041.58
2017-01-18T15:02:49.502Z,1041.61
2017-01-18T15:04:12.432Z,1041.6
2017-01-18T15:05:34.938Z,1041.62
2017-01-18T15:06:57.036Z,1041.56
2017-01-18T15:08:19.942Z,1041.62
2017-01-18T15:09:42.542Z,1041.67
2017-01-18T15:11:05.154Z,1041.64
2017-01-18T15:12:27.631Z,1041.62
2017-01-18T15:13:50.148Z,1041.6
2017-01-18T15:15:13.069Z,1041.59
2017-01-18T15:16:35.623Z,1041.63
2017-01-18T15:17:57.792Z,1041.56
2017-01-18T15:19:20.582Z,1041.57
2017-01-18T15:20:43.475Z,1041.59
2017-01-18T15:22:05.545Z,1041.6
2017-01-18T15:23:28.101Z,1041.62
2017-01-18T15:24:50.596Z,1041.61
2017-01-18T15:26:13.098Z,1041.62
2017-01-18T15:27:34.800Z,1041.61
2017-01-18T15:28:57.394Z,1041.63
2017-01-18T15:30:20.277Z,1041.62
2017-01-18T15:31:43.317Z,1041.63
2017-01-18T15:33:06.319Z,1041.62
2017-01-18T15:34:28.897Z,1041.6
2017-01-18T15:35:51.395Z,1041.56
2017-01-18T15:37:14.388Z,1041.54
2017-01-18T15:38:36.930Z,1041.6
2017-01-18T15:39:59.450Z,1041.59
2017-01-18T15:41:21.922Z,1041.65
2017-01-18T15:42:44.499Z,1041.57
2017-01-18T15:44:06.988Z,1041.56
2017-01-18T15:45:29.976Z,1041.6
2017-01-18T15:48:15.100Z,1041.66
2017-01-18T15:49:38.569Z,1041.66
2017-01-18T15:51:01.116Z,1041.7
2017-01-18T15:52:23.347Z,1041.72
2017-01-18T15:53:45.852Z,1041.65
2017-01-18T15:55:08.351Z,1041.66
2017-01-18T15:56:31.603Z,1041.69
2017-01-18T15:57:54.097Z,1041.69
2017-01-18T15:59:16.838Z,1041.66
2017-01-18T16:00:39.382Z,1041.64
2017-01-18T16:02:02.363Z,1041.67
2017-01-18T16:03:25.302Z,1041.63
2017-01-18T16:04:47.529Z,1041.7
2017-01-18T16:06:10.058Z,1041.63
2017-01-18T16:07:32.268Z,1041.65
2017-01-18T16:08:54.768Z,1041.65
2017-01-18T16:10:17.338Z,1041.67
2017-01-18T16:11:39.814Z,1041.64
2017-01-18T16:13:02.394Z,1041.59
2017-01-18T16:14:24.910Z,1041.59
2017-01-18T16:15:47.172Z,1041.61
2017-01-18T16:17:08.861Z,1041.57
2017-01-18T16:18:31.340Z,1041.53
2017-01-18T16:19:53.850Z,1041.56
2017-01-18T16:21:16.817Z,1041.57
2017-01-18T16:22:38.622Z,1041.59
2017-01-18T16:24:01.123Z,1041.59
2017-01-18T16:25:23.642Z,1041.53
2017-01-18T16:26:46.572Z,1041.53
2017-01-18T16:28:09.144Z,1041.53
2017-01-18T16:29:31.273Z,1041.48
2017-01-18T16:30:53.954Z,1041.47
2017-01-18T16:32:16.881Z,1041.45
2017-01-18T16:33:39.803Z,1041.47
2017-01-18T16:35:02.008Z,1041.48
2017-01-18T16:36:24.153Z,1041.49
2017-01-18T16:37:46.254Z,1041.48
2017-01-18T16:39:09.190Z,1041.44
2017-01-18T16:40:31.408Z,1041.47
2017-01-18T16:41:53.951Z,1041.46
2017-01-18T16:43:16.072Z,1041.46
2017-01-18T16:44:39.200Z,1041.45